sensor_id;sensor_type;location;lat;lon;timestamp;P1;durP1;ratioP1;P2;durP2;ratioP2
22046;SDS011;11187;49.412;20.956;2024-02-26T00:01:03;34.03;;;30.88;;
22046;SDS011;11187;49.412;20.956;2024-02-26T00:03:50;34.05;;;30.90;;
22046;SDS011;11187;49.412;20.956;2024-02-26T00:06:25;35.10;;;31.98;;
22046;SDS011;11187;49.412;20.956;2024-02-26T00:09:11;35.55;;;32.35;;
22046;SDS011;11187;49.412;20.956;2024-02-26T00:11:51;35.45;;;32.35;;
22046;SDS011;11187;49.412;20.956;2024-02-26T00:14:38;32.03;;;29.33;;
22046;SDS011;11187;49.412;20.956;2024-02-26T00:17:18;35.22;;;32.03;;
22046;SDS011;11187;49.412;20.956;2024-02-26T00:20:05;34.63;;;31.63;;
22046;SDS011;11187;49.412;20.956;2024-02-26T00:22:41;34.58;;;31.42;;
22046;SDS011;11187;49.412;20.956;2024-02-26T00:25:28;34.35;;;31.27;;
22046;SDS011;11187;49.412;20.956;2024-02-26T00:28:01;34.47;;;31.45;;
22046;SDS011;11187;49.412;20.956;2024-02-26T00:30:48;33.22;;;30.25;;
22046;SDS011;11187;49.412;20.956;2024-02-26T00:33:35;33.25;;;30.25;;
22046;SDS011;11187;49.412;20.956;2024-02-26T00:36:29;33.38;;;30.52;;
22046;SDS011;11187;49.412;20.956;2024-02-26T00:39:23;34.45;;;31.42;;
22046;SDS011;11187;49.412;20.956;2024-02-26T00:42:17;32.80;;;30.05;;
22046;SDS011;11187;49.412;20.956;2024-02-26T00:45:12;33.75;;;30.42;;
22046;SDS011;11187;49.412;20.956;2024-02-26T00:47:45;31.75;;;29.02;;
22046;SDS011;11187;49.412;20.956;2024-02-26T00:50:38;31.60;;;29.10;;
22046;SDS011;11187;49.412;20.956;2024-02-26T00:53:32;33.25;;;30.50;;
22046;SDS011;11187;49.412;20.956;2024-02-26T00:56:07;34.30;;;31.45;;
22046;SDS011;11187;49.412;20.956;2024-02-26T00:58:53;34.75;;;31.85;;
22046;SDS011;11187;49.412;20.956;2024-02-26T01:01:27;35.35;;;32.25;;
22046;SDS011;11187;49.412;20.956;2024-02-26T01:04:14;35.97;;;32.88;;
22046;SDS011;11187;49.412;20.956;2024-02-26T01:06:48;33.63;;;30.90;;
22046;SDS011;11187;49.412;20.956;2024-02-26T01:09:34;34.15;;;31.27;;
22046;SDS011;11187;49.412;20.956;2024-02-26T01:12:08;33.38;;;30.35;;
22046;SDS011;11187;49.412;20.956;2024-02-26T01:14:55;31.27;;;28.65;;
22046;SDS011;11187;49.412;20.956;2024-02-26T01:17:30;32.83;;;30.13;;
22046;SDS011;11187;49.412;20.956;2024-02-26T01:20:16;33.10;;;30.33;;
22046;SDS011;11187;49.412;20.956;2024-02-26T01:22:50;32.92;;;30.00;;
22046;SDS011;11187;49.412;20.956;2024-02-26T01:25:43;31.45;;;28.83;;
22046;SDS011;11187;49.412;20.956;2024-02-26T01:28:17;32.10;;;29.52;;
22046;SDS011;11187;49.412;20.956;2024-02-26T01:31:03;31.25;;;28.42;;
22046;SDS011;11187;49.412;20.956;2024-02-26T01:33:40;29.20;;;26.90;;
22046;SDS011;11187;49.412;20.956;2024-02-26T01:36:33;28.98;;;26.77;;
22046;SDS011;11187;49.412;20.956;2024-02-26T01:39:27;26.05;;;24.30;;
22046;SDS011;11187;49.412;20.956;2024-02-26T01:42:21;26.27;;;24.38;;
22046;SDS011;11187;49.412;20.956;2024-02-26T01:45:16;26.25;;;24.38;;
22046;SDS011;11187;49.412;20.956;2024-02-26T01:47:57;26.63;;;24.92;;
22046;SDS011;11187;49.412;20.956;2024-02-26T01:50:43;27.15;;;25.05;;
22046;SDS011;11187;49.412;20.956;2024-02-26T01:53:17;27.77;;;25.88;;
22046;SDS011;11187;49.412;20.956;2024-02-26T01:56:11;26.50;;;24.70;;
22046;SDS011;11187;49.412;20.956;2024-02-26T01:59:06;27.17;;;25.27;;
22046;SDS011;11187;49.412;20.956;2024-02-26T02:02:02;27.63;;;25.63;;
22046;SDS011;11187;49.412;20.956;2024-02-26T02:04:58;27.15;;;25.45;;
22046;SDS011;11187;49.412;20.956;2024-02-26T02:07:32;27.45;;;25.73;;
22046;SDS011;11187;49.412;20.956;2024-02-26T02:10:19;26.52;;;24.85;;
22046;SDS011;11187;49.412;20.956;2024-02-26T02:12:56;24.38;;;22.83;;
22046;SDS011;11187;49.412;20.956;2024-02-26T02:15:42;24.13;;;22.48;;
22046;SDS011;11187;49.412;20.956;2024-02-26T02:18:16;26.27;;;24.67;;
22046;SDS011;11187;49.412;20.956;2024-02-26T02:21:02;26.58;;;24.98;;
22046;SDS011;11187;49.412;20.956;2024-02-26T02:23:36;25.98;;;24.38;;
22046;SDS011;11187;49.412;20.956;2024-02-26T02:26:26;26.90;;;25.08;;
22046;SDS011;11187;49.412;20.956;2024-02-26T02:29:00;25.02;;;23.63;;
22046;SDS011;11187;49.412;20.956;2024-02-26T02:31:49;25.63;;;23.70;;
22046;SDS011;11187;49.412;20.956;2024-02-26T02:34:23;25.08;;;23.27;;
22046;SDS011;11187;49.412;20.956;2024-02-26T02:37:10;26.05;;;24.55;;
22046;SDS011;11187;49.412;20.956;2024-02-26T02:39:51;26.83;;;25.13;;
22046;SDS011;11187;49.412;20.956;2024-02-26T02:42:30;27.60;;;25.77;;
22046;SDS011;11187;49.412;20.956;2024-02-26T02:45:11;25.95;;;24.30;;
22046;SDS011;11187;49.412;20.956;2024-02-26T02:47:57;27.67;;;25.83;;
22046;SDS011;11187;49.412;20.956;2024-02-26T02:50:31;27.20;;;25.45;;
22046;SDS011;11187;49.412;20.956;2024-02-26T02:53:24;26.25;;;24.65;;
22046;SDS011;11187;49.412;20.956;2024-02-26T02:55:58;29.73;;;27.88;;
22046;SDS011;11187;49.412;20.956;2024-02-26T02:58:44;29.05;;;27.25;;
22046;SDS011;11187;49.412;20.956;2024-02-26T03:01:38;28.67;;;26.98;;
22046;SDS011;11187;49.412;20.956;2024-02-26T03:04:32;29.60;;;27.70;;
22046;SDS011;11187;49.412;20.956;2024-02-26T03:07:06;27.23;;;25.63;;
22046;SDS011;11187;49.412;20.956;2024-02-26T03:09:52;27.42;;;25.67;;
22046;SDS011;11187;49.412;20.956;2024-02-26T03:12:26;27.23;;;25.63;;
22046;SDS011;11187;49.412;20.956;2024-02-26T03:15:19;26.50;;;25.00;;
22046;SDS011;11187;49.412;20.956;2024-02-26T03:17:53;26.50;;;24.70;;
22046;SDS011;11187;49.412;20.956;2024-02-26T03:20:46;25.25;;;23.75;;
22046;SDS011;11187;49.412;20.956;2024-02-26T03:23:40;25.17;;;23.73;;
22046;SDS011;11187;49.412;20.956;2024-02-26T03:26:21;25.08;;;23.55;;
22046;SDS011;11187;49.412;20.956;2024-02-26T03:29:00;25.50;;;24.00;;
22046;SDS011;11187;49.412;20.956;2024-02-26T03:31:42;27.65;;;26.05;;
22046;SDS011;11187;49.412;20.956;2024-02-26T03:34:21;27.02;;;25.38;;
22046;SDS011;11187;49.412;20.956;2024-02-26T03:37:02;24.23;;;22.83;;
22046;SDS011;11187;49.412;20.956;2024-02-26T03:39:45;24.15;;;22.75;;
22046;SDS011;11187;49.412;20.956;2024-02-26T03:42:26;23.35;;;21.95;;
22046;SDS011;11187;49.412;20.956;2024-02-26T03:45:12;23.30;;;22.00;;
22046;SDS011;11187;49.412;20.956;2024-02-26T03:47:46;23.40;;;22.10;;
22046;SDS011;11187;49.412;20.956;2024-02-26T03:50:32;23.25;;;21.95;;
22046;SDS011;11187;49.412;20.956;2024-02-26T03:53:08;22.30;;;21.08;;
22046;SDS011;11187;49.412;20.956;2024-02-26T03:55:54;24.80;;;23.20;;
22046;SDS011;11187;49.412;20.956;2024-02-26T03:58:28;23.38;;;22.08;;
22046;SDS011;11187;49.412;20.956;2024-02-26T04:01:14;23.35;;;22.05;;
22046;SDS011;11187;49.412;20.956;2024-02-26T04:03:49;25.27;;;23.67;;
22046;SDS011;11187;49.412;20.956;2024-02-26T04:06:35;24.73;;;23.23;;
22046;SDS011;11187;49.412;20.956;2024-02-26T04:09:09;26.48;;;24.67;;
22046;SDS011;11187;49.412;20.956;2024-02-26T04:11:55;26.08;;;24.38;;
22046;SDS011;11187;49.412;20.956;2024-02-26T04:14:29;25.23;;;23.70;;
22046;SDS011;11187;49.412;20.956;2024-02-26T04:17:15;25.80;;;24.30;;
22046;SDS011;11187;49.412;20.956;2024-02-26T04:19:49;27.38;;;25.67;;
22046;SDS011;11187;49.412;20.956;2024-02-26T04:22:35;26.23;;;24.52;;
22046;SDS011;11187;49.412;20.956;2024-02-26T04:25:16;26.33;;;24.73;;
22046;SDS011;11187;49.412;20.956;2024-02-26T04:28:02;25.80;;;24.30;;
22046;SDS011;11187;49.412;20.956;2024-02-26T04:30:36;26.45;;;24.85;;
22046;SDS011;11187;49.412;20.956;2024-02-26T04:33:22;24.52;;;23.13;;
22046;SDS011;11187;49.412;20.956;2024-02-26T04:36:03;23.48;;;22.13;;
22046;SDS011;11187;49.412;20.956;2024-02-26T04:38:43;22.55;;;21.25;;
22046;SDS011;11187;49.412;20.956;2024-02-26T04:41:24;22.15;;;20.85;;
22046;SDS011;11187;49.412;20.956;2024-02-26T04:44:17;22.38;;;21.08;;
22046;SDS011;11187;49.412;20.956;2024-02-26T04:46:51;24.13;;;22.67;;
22046;SDS011;11187;49.412;20.956;2024-02-26T04:49:37;22.90;;;21.50;;
22046;SDS011;11187;49.412;20.956;2024-02-26T04:52:11;20.98;;;19.67;;
22046;SDS011;11187;49.412;20.956;2024-02-26T04:55:04;21.42;;;20.23;;
22046;SDS011;11187;49.412;20.956;2024-02-26T04:57:38;21.58;;;20.38;;
22046;SDS011;11187;49.412;20.956;2024-02-26T05:00:24;19.75;;;18.55;;
22046;SDS011;11187;49.412;20.956;2024-02-26T05:02:58;21.05;;;19.85;;
22046;SDS011;11187;49.412;20.956;2024-02-26T05:05:44;21.58;;;20.35;;
22046;SDS011;11187;49.412;20.956;2024-02-26T05:08:18;21.60;;;20.30;;
22046;SDS011;11187;49.412;20.956;2024-02-26T05:11:05;20.67;;;19.48;;
22046;SDS011;11187;49.412;20.956;2024-02-26T05:13:39;23.90;;;22.50;;
22046;SDS011;11187;49.412;20.956;2024-02-26T05:16:26;23.20;;;21.80;;
22046;SDS011;11187;49.412;20.956;2024-02-26T05:19:00;23.10;;;21.80;;
22046;SDS011;11187;49.412;20.956;2024-02-26T05:21:54;26.02;;;24.52;;
22046;SDS011;11187;49.412;20.956;2024-02-26T05:24:48;23.30;;;21.73;;
22046;SDS011;11187;49.412;20.956;2024-02-26T05:27:22;25.02;;;23.55;;
22046;SDS011;11187;49.412;20.956;2024-02-26T05:30:09;23.88;;;22.27;;
22046;SDS011;11187;49.412;20.956;2024-02-26T05:32:43;24.50;;;23.00;;
22046;SDS011;11187;49.412;20.956;2024-02-26T05:35:29;26.38;;;24.67;;
22046;SDS011;11187;49.412;20.956;2024-02-26T05:38:03;25.92;;;24.33;;
22046;SDS011;11187;49.412;20.956;2024-02-26T05:40:49;24.80;;;23.17;;
22046;SDS011;11187;49.412;20.956;2024-02-26T05:43:32;23.45;;;21.92;;
22046;SDS011;11187;49.412;20.956;2024-02-26T05:46:11;22.67;;;21.38;;
22046;SDS011;11187;49.412;20.956;2024-02-26T05:48:52;26.08;;;24.35;;
22046;SDS011;11187;49.412;20.956;2024-02-26T05:51:39;24.05;;;22.63;;
22046;SDS011;11187;49.412;20.956;2024-02-26T05:54:13;23.58;;;22.08;;
22046;SDS011;11187;49.412;20.956;2024-02-26T05:57:00;24.95;;;23.45;;
22046;SDS011;11187;49.412;20.956;2024-02-26T05:59:35;25.38;;;23.77;;
22046;SDS011;11187;49.412;20.956;2024-02-26T06:02:21;27.17;;;25.30;;
22046;SDS011;11187;49.412;20.956;2024-02-26T06:04:55;25.77;;;24.17;;
22046;SDS011;11187;49.412;20.956;2024-02-26T06:07:42;24.83;;;23.23;;
22046;SDS011;11187;49.412;20.956;2024-02-26T06:10:16;26.77;;;25.17;;
22046;SDS011;11187;49.412;20.956;2024-02-26T06:13:09;24.92;;;23.42;;
22046;SDS011;11187;49.412;20.956;2024-02-26T06:15:43;25.35;;;23.33;;
22046;SDS011;11187;49.412;20.956;2024-02-26T06:18:30;27.83;;;26.13;;
22046;SDS011;11187;49.412;20.956;2024-02-26T06:21:03;26.17;;;24.67;;
22046;SDS011;11187;49.412;20.956;2024-02-26T06:23:57;24.83;;;23.23;;
22046;SDS011;11187;49.412;20.956;2024-02-26T06:26:51;25.50;;;23.90;;
22046;SDS011;11187;49.412;20.956;2024-02-26T06:29:45;25.00;;;23.50;;
22046;SDS011;11187;49.412;20.956;2024-02-26T06:32:39;26.88;;;25.20;;
22046;SDS011;11187;49.412;20.956;2024-02-26T06:35:13;27.27;;;25.50;;
22046;SDS011;11187;49.412;20.956;2024-02-26T06:38:06;26.52;;;24.83;;
22046;SDS011;11187;49.412;20.956;2024-02-26T06:40:41;28.92;;;26.92;;
22046;SDS011;11187;49.412;20.956;2024-02-26T06:43:27;28.38;;;26.27;;
22046;SDS011;11187;49.412;20.956;2024-02-26T06:46:01;26.55;;;24.80;;
22046;SDS011;11187;49.412;20.956;2024-02-26T06:48:48;29.42;;;27.42;;
22046;SDS011;11187;49.412;20.956;2024-02-26T06:51:22;28.58;;;26.58;;
22046;SDS011;11187;49.412;20.956;2024-02-26T06:54:26;28.35;;;26.35;;
22046;SDS011;11187;49.412;20.956;2024-02-26T06:57:00;28.48;;;26.48;;
22046;SDS011;11187;49.412;20.956;2024-02-26T06:59:54;27.08;;;25.27;;
22046;SDS011;11187;49.412;20.956;2024-02-26T07:02:49;27.05;;;25.08;;
22046;SDS011;11187;49.412;20.956;2024-02-26T07:05:23;30.83;;;28.42;;
22046;SDS011;11187;49.412;20.956;2024-02-26T07:08:10;28.95;;;26.95;;
22046;SDS011;11187;49.412;20.956;2024-02-26T07:10:43;27.52;;;25.50;;
22046;SDS011;11187;49.412;20.956;2024-02-26T07:13:37;26.60;;;24.80;;
22046;SDS011;11187;49.412;20.956;2024-02-26T07:16:30;26.23;;;24.42;;
22046;SDS011;11187;49.412;20.956;2024-02-26T07:19:04;28.73;;;26.77;;
22046;SDS011;11187;49.412;20.956;2024-02-26T07:21:51;29.20;;;27.13;;
22046;SDS011;11187;49.412;20.956;2024-02-26T07:24:24;27.42;;;25.20;;
22046;SDS011;11187;49.412;20.956;2024-02-26T07:27:11;29.50;;;27.30;;
22046;SDS011;11187;49.412;20.956;2024-02-26T07:29:44;30.98;;;28.35;;
22046;SDS011;11187;49.412;20.956;2024-02-26T07:32:38;28.50;;;26.48;;
22046;SDS011;11187;49.412;20.956;2024-02-26T07:35:15;31.23;;;28.48;;
22046;SDS011;11187;49.412;20.956;2024-02-26T07:38:09;30.75;;;27.90;;
22046;SDS011;11187;49.412;20.956;2024-02-26T07:40:57;29.50;;;27.13;;
22046;SDS011;11187;49.412;20.956;2024-02-26T07:43:45;31.02;;;28.33;;
22046;SDS011;11187;49.412;20.956;2024-02-26T07:46:25;32.03;;;29.42;;
22046;SDS011;11187;49.412;20.956;2024-02-26T07:49:19;35.78;;;32.53;;
22046;SDS011;11187;49.412;20.956;2024-02-26T07:52:18;34.30;;;31.52;;
22046;SDS011;11187;49.412;20.956;2024-02-26T07:55:12;46.42;;;40.60;;
22046;SDS011;11187;49.412;20.956;2024-02-26T07:58:06;40.17;;;35.88;;
22046;SDS011;11187;49.412;20.956;2024-02-26T08:00:39;38.25;;;34.75;;
22046;SDS011;11187;49.412;20.956;2024-02-26T08:03:32;37.75;;;34.42;;
22046;SDS011;11187;49.412;20.956;2024-02-26T08:06:07;36.88;;;33.70;;
22046;SDS011;11187;49.412;20.956;2024-02-26T08:08:55;35.80;;;32.80;;
22046;SDS011;11187;49.412;20.956;2024-02-26T08:11:28;39.15;;;35.47;;
22046;SDS011;11187;49.412;20.956;2024-02-26T08:14:15;35.53;;;32.50;;
22046;SDS011;11187;49.412;20.956;2024-02-26T08:16:48;33.47;;;30.50;;
22046;SDS011;11187;49.412;20.956;2024-02-26T08:19:42;36.13;;;32.97;;
22046;SDS011;11187;49.412;20.956;2024-02-26T08:22:36;36.40;;;33.10;;
22046;SDS011;11187;49.412;20.956;2024-02-26T08:25:30;35.97;;;32.58;;
22046;SDS011;11187;49.412;20.956;2024-02-26T08:28:24;34.72;;;31.40;;
22046;SDS011;11187;49.412;20.956;2024-02-26T08:30:57;35.38;;;31.85;;
22046;SDS011;11187;49.412;20.956;2024-02-26T08:33:51;38.97;;;35.58;;
22046;SDS011;11187;49.412;20.956;2024-02-26T08:36:46;35.30;;;31.85;;
22046;SDS011;11187;49.412;20.956;2024-02-26T08:39:19;34.40;;;31.15;;
22046;SDS011;11187;49.412;20.956;2024-02-26T08:42:13;34.03;;;30.90;;
22046;SDS011;11187;49.412;20.956;2024-02-26T08:45:07;35.75;;;32.15;;
22046;SDS011;11187;49.412;20.956;2024-02-26T08:47:41;32.78;;;29.80;;
22046;SDS011;11187;49.412;20.956;2024-02-26T08:50:35;32.38;;;29.00;;
22046;SDS011;11187;49.412;20.956;2024-02-26T08:53:08;33.28;;;30.02;;
22046;SDS011;11187;49.412;20.956;2024-02-26T08:56:03;32.53;;;29.40;;
22046;SDS011;11187;49.412;20.956;2024-02-26T08:58:36;32.50;;;29.65;;
22046;SDS011;11187;49.412;20.956;2024-02-26T09:01:31;34.88;;;31.80;;
22046;SDS011;11187;49.412;20.956;2024-02-26T09:04:04;32.85;;;29.88;;
22046;SDS011;11187;49.412;20.956;2024-02-26T09:06:58;33.50;;;30.27;;
22046;SDS011;11187;49.412;20.956;2024-02-26T09:09:31;30.95;;;27.98;;
22046;SDS011;11187;49.412;20.956;2024-02-26T09:12:18;30.83;;;27.92;;
22046;SDS011;11187;49.412;20.956;2024-02-26T09:14:52;34.17;;;30.92;;
22046;SDS011;11187;49.412;20.956;2024-02-26T09:17:46;30.50;;;27.63;;
22046;SDS011;11187;49.412;20.956;2024-02-26T09:20:40;30.48;;;27.50;;
22046;SDS011;11187;49.412;20.956;2024-02-26T09:23:14;31.67;;;28.60;;
22046;SDS011;11187;49.412;20.956;2024-02-26T09:26:08;30.23;;;27.17;;
22046;SDS011;11187;49.412;20.956;2024-02-26T09:28:43;28.98;;;26.25;;
22046;SDS011;11187;49.412;20.956;2024-02-26T09:31:31;29.05;;;26.25;;
22046;SDS011;11187;49.412;20.956;2024-02-26T09:34:04;29.58;;;26.75;;
22046;SDS011;11187;49.412;20.956;2024-02-26T09:36:51;29.88;;;27.17;;
22046;SDS011;11187;49.412;20.956;2024-02-26T09:39:38;30.77;;;27.58;;
22046;SDS011;11187;49.412;20.956;2024-02-26T09:42:26;37.60;;;31.48;;
22046;SDS011;11187;49.412;20.956;2024-02-26T09:45:06;31.73;;;28.60;;
22046;SDS011;11187;49.412;20.956;2024-02-26T09:47:57;32.53;;;29.35;;
22046;SDS011;11187;49.412;20.956;2024-02-26T09:50:37;31.55;;;28.20;;
22046;SDS011;11187;49.412;20.956;2024-02-26T09:53:17;31.83;;;28.73;;
22046;SDS011;11187;49.412;20.956;2024-02-26T09:55:58;30.90;;;27.60;;
22046;SDS011;11187;49.412;20.956;2024-02-26T09:58:39;29.95;;;26.98;;
22046;SDS011;11187;49.412;20.956;2024-02-26T10:01:21;28.95;;;26.10;;
22046;SDS011;11187;49.412;20.956;2024-02-26T10:04:05;31.83;;;28.80;;
22046;SDS011;11187;49.412;20.956;2024-02-26T10:06:45;31.85;;;28.70;;
22046;SDS011;11187;49.412;20.956;2024-02-26T10:09:32;29.13;;;26.27;;
22046;SDS011;11187;49.412;20.956;2024-02-26T10:12:12;44.65;;;32.63;;
22046;SDS011;11187;49.412;20.956;2024-02-26T10:14:52;37.83;;;34.05;;
22046;SDS011;11187;49.412;20.956;2024-02-26T10:17:32;33.20;;;29.75;;
22046;SDS011;11187;49.412;20.956;2024-02-26T10:20:13;41.83;;;37.42;;
22046;SDS011;11187;49.412;20.956;2024-02-26T10:22:57;33.00;;;29.98;;
22046;SDS011;11187;49.412;20.956;2024-02-26T10:25:38;31.98;;;28.55;;
22046;SDS011;11187;49.412;20.956;2024-02-26T10:28:33;54.00;;;42.08;;
22046;SDS011;11187;49.412;20.956;2024-02-26T10:31:16;32.15;;;28.85;;
22046;SDS011;11187;49.412;20.956;2024-02-26T10:34:03;30.30;;;27.23;;
22046;SDS011;11187;49.412;20.956;2024-02-26T10:36:57;32.55;;;29.13;;
22046;SDS011;11187;49.412;20.956;2024-02-26T10:39:51;32.53;;;29.35;;
22046;SDS011;11187;49.412;20.956;2024-02-26T10:42:25;30.30;;;26.98;;
22046;SDS011;11187;49.412;20.956;2024-02-26T10:45:20;28.50;;;25.40;;
22046;SDS011;11187;49.412;20.956;2024-02-26T10:48:17;32.60;;;29.30;;
22046;SDS011;11187;49.412;20.956;2024-02-26T10:50:50;28.95;;;25.88;;
22046;SDS011;11187;49.412;20.956;2024-02-26T10:53:38;31.02;;;27.83;;
22046;SDS011;11187;49.412;20.956;2024-02-26T10:56:14;41.13;;;33.80;;
22046;SDS011;11187;49.412;20.956;2024-02-26T10:59:05;31.85;;;28.80;;
22046;SDS011;11187;49.412;20.956;2024-02-26T11:01:40;30.55;;;27.08;;
22046;SDS011;11187;49.412;20.956;2024-02-26T11:04:34;29.25;;;26.25;;
22046;SDS011;11187;49.412;20.956;2024-02-26T11:07:08;32.65;;;29.10;;
22046;SDS011;11187;49.412;20.956;2024-02-26T11:10:03;31.65;;;28.30;;
22046;SDS011;11187;49.412;20.956;2024-02-26T11:12:37;38.30;;;31.63;;
22046;SDS011;11187;49.412;20.956;2024-02-26T11:15:33;32.63;;;26.33;;
22046;SDS011;11187;49.412;20.956;2024-02-26T11:18:27;55.60;;;35.47;;
22046;SDS011;11187;49.412;20.956;2024-02-26T11:21:00;36.17;;;27.73;;
22046;SDS011;11187;49.412;20.956;2024-02-26T11:23:49;42.83;;;29.27;;
22046;SDS011;11187;49.412;20.956;2024-02-26T11:26:47;42.10;;;30.15;;
22046;SDS011;11187;49.412;20.956;2024-02-26T11:29:23;32.70;;;25.58;;
22046;SDS011;11187;49.412;20.956;2024-02-26T11:32:21;28.00;;;24.33;;
22046;SDS011;11187;49.412;20.956;2024-02-26T11:35:17;28.40;;;25.25;;
22046;SDS011;11187;49.412;20.956;2024-02-26T11:38:16;29.63;;;25.77;;
22046;SDS011;11187;49.412;20.956;2024-02-26T11:41:15;38.88;;;27.40;;
22046;SDS011;11187;49.412;20.956;2024-02-26T11:43:58;29.17;;;25.85;;
22046;SDS011;11187;49.412;20.956;2024-02-26T11:46:54;28.48;;;24.63;;
22046;SDS011;11187;49.412;20.956;2024-02-26T11:49:32;24.85;;;22.15;;
22046;SDS011;11187;49.412;20.956;2024-02-26T11:52:26;26.17;;;23.40;;
22046;SDS011;11187;49.412;20.956;2024-02-26T11:55:31;23.70;;;21.23;;
22046;SDS011;11187;49.412;20.956;2024-02-26T11:58:12;23.50;;;20.95;;
22046;SDS011;11187;49.412;20.956;2024-02-26T12:00:52;24.13;;;21.60;;
22046;SDS011;11187;49.412;20.956;2024-02-26T12:03:37;23.35;;;20.85;;
22046;SDS011;11187;49.412;20.956;2024-02-26T12:06:18;24.50;;;21.88;;
22046;SDS011;11187;49.412;20.956;2024-02-26T12:08:58;22.45;;;19.13;;
22046;SDS011;11187;49.412;20.956;2024-02-26T12:11:45;22.77;;;20.23;;
22046;SDS011;11187;49.412;20.956;2024-02-26T12:14:18;22.30;;;19.95;;
22046;SDS011;11187;49.412;20.956;2024-02-26T12:17:05;21.15;;;18.83;;
22046;SDS011;11187;49.412;20.956;2024-02-26T12:19:40;25.83;;;21.08;;
22046;SDS011;11187;49.412;20.956;2024-02-26T12:22:27;25.10;;;19.75;;
22046;SDS011;11187;49.412;20.956;2024-02-26T12:25:01;22.17;;;19.67;;
22046;SDS011;11187;49.412;20.956;2024-02-26T12:27:49;22.00;;;19.70;;
22046;SDS011;11187;49.412;20.956;2024-02-26T12:30:29;22.27;;;20.17;;
22046;SDS011;11187;49.412;20.956;2024-02-26T12:33:18;22.52;;;20.13;;
22046;SDS011;11187;49.412;20.956;2024-02-26T12:35:52;29.30;;;20.08;;
22046;SDS011;11187;49.412;20.956;2024-02-26T12:38:40;20.92;;;18.73;;
22046;SDS011;11187;49.412;20.956;2024-02-26T12:41:21;20.45;;;18.48;;
22046;SDS011;11187;49.412;20.956;2024-02-26T12:44:11;21.52;;;19.30;;
22046;SDS011;11187;49.412;20.956;2024-02-26T12:46:59;22.45;;;20.40;;
22046;SDS011;11187;49.412;20.956;2024-02-26T12:49:52;23.30;;;21.10;;
22046;SDS011;11187;49.412;20.956;2024-02-26T12:52:33;23.13;;;20.98;;
22046;SDS011;11187;49.412;20.956;2024-02-26T12:55:20;21.45;;;19.45;;
22046;SDS011;11187;49.412;20.956;2024-02-26T12:58:01;23.15;;;20.95;;
22046;SDS011;11187;49.412;20.956;2024-02-26T13:00:41;23.45;;;20.95;;
22046;SDS011;11187;49.412;20.956;2024-02-26T13:03:22;20.65;;;18.67;;
22046;SDS011;11187;49.412;20.956;2024-02-26T13:06:02;20.70;;;18.80;;
22046;SDS011;11187;49.412;20.956;2024-02-26T13:08:45;22.05;;;19.85;;
22046;SDS011;11187;49.412;20.956;2024-02-26T13:11:25;20.02;;;17.92;;
22046;SDS011;11187;49.412;20.956;2024-02-26T13:14:05;22.42;;;20.17;;
22046;SDS011;11187;49.412;20.956;2024-02-26T13:16:45;22.92;;;20.70;;
22046;SDS011;11187;49.412;20.956;2024-02-26T13:19:25;21.85;;;19.60;;
22046;SDS011;11187;49.412;20.956;2024-02-26T13:22:07;20.83;;;18.80;;
22046;SDS011;11187;49.412;20.956;2024-02-26T13:24:53;23.02;;;20.85;;
22046;SDS011;11187;49.412;20.956;2024-02-26T13:27:42;26.10;;;23.45;;
22046;SDS011;11187;49.412;20.956;2024-02-26T13:30:22;23.35;;;21.05;;
22046;SDS011;11187;49.412;20.956;2024-02-26T13:33:09;22.83;;;20.58;;
22046;SDS011;11187;49.412;20.956;2024-02-26T13:36:00;25.08;;;22.23;;
22046;SDS011;11187;49.412;20.956;2024-02-26T13:38:54;27.75;;;20.55;;
22046;SDS011;11187;49.412;20.956;2024-02-26T13:41:51;24.83;;;22.38;;
22046;SDS011;11187;49.412;20.956;2024-02-26T13:44:45;25.88;;;23.20;;
22046;SDS011;11187;49.412;20.956;2024-02-26T13:47:18;25.52;;;22.42;;
22046;SDS011;11187;49.412;20.956;2024-02-26T13:50:06;24.48;;;22.05;;
22046;SDS011;11187;49.412;20.956;2024-02-26T13:52:39;23.95;;;21.73;;
22046;SDS011;11187;49.412;20.956;2024-02-26T13:55:26;24.33;;;21.85;;
22046;SDS011;11187;49.412;20.956;2024-02-26T13:58:01;24.83;;;22.42;;
22046;SDS011;11187;49.412;20.956;2024-02-26T14:00:48;22.85;;;20.45;;
22046;SDS011;11187;49.412;20.956;2024-02-26T14:03:28;26.20;;;23.45;;
22046;SDS011;11187;49.412;20.956;2024-02-26T14:06:15;26.38;;;23.85;;
22046;SDS011;11187;49.412;20.956;2024-02-26T14:08:49;24.33;;;22.02;;
22046;SDS011;11187;49.412;20.956;2024-02-26T14:11:36;27.08;;;23.13;;
22046;SDS011;11187;49.412;20.956;2024-02-26T14:14:16;27.63;;;23.08;;
22046;SDS011;11187;49.412;20.956;2024-02-26T14:17:03;26.25;;;23.55;;
22046;SDS011;11187;49.412;20.956;2024-02-26T14:19:36;25.55;;;22.45;;
22046;SDS011;11187;49.412;20.956;2024-02-26T14:22:24;22.85;;;20.45;;
22046;SDS011;11187;49.412;20.956;2024-02-26T14:24:59;25.42;;;22.83;;
22046;SDS011;11187;49.412;20.956;2024-02-26T14:27:49;26.42;;;23.33;;
22046;SDS011;11187;49.412;20.956;2024-02-26T14:30:29;25.30;;;22.52;;
22046;SDS011;11187;49.412;20.956;2024-02-26T14:33:16;26.92;;;24.08;;
22046;SDS011;11187;49.412;20.956;2024-02-26T14:36:03;25.17;;;22.58;;
22046;SDS011;11187;49.412;20.956;2024-02-26T14:38:57;22.83;;;20.63;;
22046;SDS011;11187;49.412;20.956;2024-02-26T14:41:51;25.58;;;23.08;;
22046;SDS011;11187;49.412;20.956;2024-02-26T14:44:45;25.50;;;22.83;;
22046;SDS011;11187;49.412;20.956;2024-02-26T14:47:20;27.50;;;21.65;;
22046;SDS011;11187;49.412;20.956;2024-02-26T14:50:14;26.20;;;22.55;;
22046;SDS011;11187;49.412;20.956;2024-02-26T14:52:47;26.70;;;24.02;;
22046;SDS011;11187;49.412;20.956;2024-02-26T14:55:34;25.27;;;22.67;;
22046;SDS011;11187;49.412;20.956;2024-02-26T14:58:14;25.23;;;22.67;;
22046;SDS011;11187;49.412;20.956;2024-02-26T15:00:54;26.38;;;23.88;;
22046;SDS011;11187;49.412;20.956;2024-02-26T15:03:34;27.80;;;23.90;;
22046;SDS011;11187;49.412;20.956;2024-02-26T15:06:21;30.27;;;24.58;;
22046;SDS011;11187;49.412;20.956;2024-02-26T15:08:55;24.73;;;22.50;;
22046;SDS011;11187;49.412;20.956;2024-02-26T15:11:43;27.83;;;24.67;;
22046;SDS011;11187;49.412;20.956;2024-02-26T15:14:17;28.65;;;23.45;;
22046;SDS011;11187;49.412;20.956;2024-02-26T15:17:05;25.85;;;23.05;;
22046;SDS011;11187;49.412;20.956;2024-02-26T15:19:43;26.58;;;23.75;;
22046;SDS011;11187;49.412;20.956;2024-02-26T15:22:30;26.27;;;23.50;;
22046;SDS011;11187;49.412;20.956;2024-02-26T15:25:03;26.98;;;21.05;;
22046;SDS011;11187;49.412;20.956;2024-02-26T15:27:50;25.10;;;22.48;;
22046;SDS011;11187;49.412;20.956;2024-02-26T15:30:23;27.63;;;22.88;;
22046;SDS011;11187;49.412;20.956;2024-02-26T15:33:11;45.85;;;24.10;;
22046;SDS011;11187;49.412;20.956;2024-02-26T15:35:45;27.40;;;23.83;;
22046;SDS011;11187;49.412;20.956;2024-02-26T15:38:32;29.05;;;25.67;;
22046;SDS011;11187;49.412;20.956;2024-02-26T15:41:12;32.03;;;26.92;;
22046;SDS011;11187;49.412;20.956;2024-02-26T15:44:00;28.85;;;24.60;;